ROTAER D-AMDT 10/19 Ver Mudanças

PLATAFORMA P-25 ( SBLB ) / MACAÉ, RJ 22 06 34S/039 55 01W
HD PRIV UTC-3 HJ 22 (72)
SBCW (CINDACTA 2)
MET -

[1] [2] (22) 2792-2534 CMA 1,2,3,4

RMK -

REGULAMENTOS PARA TRÁFEGO LOCAL
  1. OPS HEL TKOF DA AREA DE RESPONSABILIDADE DAS RDO ENCHOVA, RDO MARLIM E RDO ALBACORA DEVERAO APRESENTAR PVC NO AD DE ORIGEM NO CONTINENTE E HEL REALIZANDO FLT TRANSLADO BTN AS PLATAFORMAS PODERAO APRESENTAR PLN VIA RADIOTELEFONIA PARA AS RDO ENCHOVA, RDO MARLIM E RDO ALBACORA
COMPL -
  • [1] (DLY 0900-2100)
  • [2] OPR PETROBRAS
TEMP (0)

Suplementos AIP (0)

NOTAM (1)

CNS

Z2107/18 R Z0897/18 03/12/2018 17:09
NDB LBA 210.00KHZ RETIRADO
REF: AIP ENR 6 L2/H2
ATCSMAC MACAE


Nascer/Por do Sol

07:47

21:03


METAR

210700Z AUTO 10022KT 9999 OVC046 24/20 Q1016 W26/S4=

TAF

Não disponível


Cartas (2)

IAC


SID



Rotas Preferenciais (0)